Time;durP1;ratioP1;P1;durP2;ratioP2;P2;SDS_P1;SDS_P2;PMS_P1;PMS_P2;Temp;Humidity;BMP_temperature;BMP_pressure;BME280_temperature;BME280_humidity;BME280_pressure;Samples;Min_cycle;Max_cycle;Signal;HPM_P1;HPM_P2
2023/08/30 00:01:48;;;;;;;8.80;3.10;;;;;;;17.48;61.33;99737.34;4998918;28;20045;-67
2023/08/30 00:04:13;;;;;;;12.57;3.20;;;;;;;17.43;61.55;99738.44;4997210;28;20511;-67
2023/08/30 00:06:39;;;;;;;9.00;3.47;;;;;;;17.43;61.61;99749.09;4994569;28;20022;-67
2023/08/30 00:09:04;;;;;;;9.35;2.90;;;;;;;17.44;61.63;99741.03;5000462;28;20028;-67
2023/08/30 00:11:30;;;;;;;9.43;2.93;;;;;;;17.46;61.50;99738.31;5000082;28;20047;-67
2023/08/30 00:14:05;;;;;;;8.03;2.97;;;;;;;17.49;61.58;99736.41;4998732;28;20027;-67
2023/08/30 00:16:30;;;;;;;10.98;2.90;;;;;;;17.48;61.58;99729.34;4999909;28;20022;-67
2023/08/30 00:18:56;;;;;;;8.43;2.93;;;;;;;17.44;61.64;99725.06;4992908;28;20022;-67
2023/08/30 00:21:21;;;;;;;8.97;3.10;;;;;;;17.41;61.81;99727.84;5000053;28;20280;-67
2023/08/30 00:23:46;;;;;;;8.93;2.90;;;;;;;17.37;61.77;99728.91;4998821;28;20101;-67
2023/08/30 00:26:12;;;;;;;9.30;3.50;;;;;;;17.37;61.90;99726.25;5000110;28;20113;-67
2023/08/30 00:28:37;;;;;;;10.37;3.30;;;;;;;17.38;61.97;99722.66;5000288;28;20029;-67
2023/08/30 00:31:02;;;;;;;10.20;3.13;;;;;;;17.36;62.19;99721.84;4999400;28;20054;-67
2023/08/30 00:33:28;;;;;;;9.63;2.83;;;;;;;17.35;62.18;99725.44;4999937;28;20277;-67
2023/08/30 00:36:00;;;;;;;9.73;3.17;;;;;;;17.33;62.72;99719.31;4999971;28;20026;-67
2023/08/30 00:38:29;;;;;;;8.50;3.28;;;;;;;17.29;62.44;99721.22;5000025;28;20027;-67
2023/08/30 00:40:54;;;;;;;10.00;3.00;;;;;;;17.27;62.44;99722.25;4998392;28;20052;-67
2023/08/30 00:43:20;;;;;;;9.00;2.63;;;;;;;17.28;62.45;99716.84;4998572;28;20535;-67
2023/08/30 00:45:47;;;;;;;10.00;3.17;;;;;;;17.30;62.63;99706.16;4999313;28;20019;-67
2023/08/30 00:48:14;;;;;;;10.55;3.20;;;;;;;17.30;62.71;99703.47;4999740;28;20034;-67
2023/08/30 00:50:40;;;;;;;10.10;3.10;;;;;;;17.32;62.60;99706.94;4999593;28;20030;-67
2023/08/30 00:53:07;;;;;;;8.90;3.15;;;;;;;17.35;62.41;99701.50;4998171;28;20037;-67
2023/08/30 00:55:37;;;;;;;8.00;2.92;;;;;;;17.39;62.51;99699.56;4999458;28;20051;-67
2023/08/30 00:58:03;;;;;;;7.20;2.78;;;;;;;17.41;62.66;99698.56;4999707;28;20388;-67
2023/08/30 01:00:30;;;;;;;8.95;2.88;;;;;;;17.45;62.65;99694.00;4999003;28;20034;-67
2023/08/30 01:02:56;;;;;;;8.93;2.90;;;;;;;17.48;62.52;99689.41;4999515;28;20018;-67
2023/08/30 01:05:22;;;;;;;8.80;3.10;;;;;;;17.49;62.44;99688.50;4990181;28;20086;-67
2023/08/30 01:07:49;;;;;;;9.10;3.10;;;;;;;17.54;62.46;99695.41;4999139;28;20061;-67
2023/08/30 01:10:15;;;;;;;8.63;2.97;;;;;;;17.55;62.35;99690.00;4999040;28;20053;-67
2023/08/30 01:12:45;;;;;;;9.03;3.53;;;;;;;17.56;62.59;99682.91;4997727;28;20034;-67
2023/08/30 01:15:15;;;;;;;9.98;3.10;;;;;;;17.58;62.41;99689.00;4997332;28;20026;-67
2023/08/30 01:17:45;;;;;;;9.20;3.55;;;;;;;17.57;62.53;99687.28;4994479;28;20026;-67
2023/08/30 01:20:18;;;;;;;7.68;3.00;;;;;;;17.51;62.63;99685.75;4997377;28;20498;-67
2023/08/30 01:23:02;;;;;;;9.47;3.20;;;;;;;17.47;62.74;99690.31;4999279;28;20015;-67
2023/08/30 01:25:55;;;;;;;10.82;3.47;;;;;;;17.40;63.40;99686.19;4999000;28;20447;-67
2023/08/30 01:28:24;;;;;;;9.60;3.00;;;;;;;17.40;63.11;99678.22;4999042;28;20026;-67
2023/08/30 01:30:54;;;;;;;9.45;3.35;;;;;;;17.41;63.18;99674.63;4998466;28;20030;-67
2023/08/30 01:33:20;;;;;;;8.98;3.10;;;;;;;17.40;63.10;99667.56;4998956;28;20026;-67
2023/08/30 01:35:46;;;;;;;9.37;2.80;;;;;;;17.42;63.16;99678.16;4998938;28;20038;-67
2023/08/30 01:38:13;;;;;;;11.13;3.40;;;;;;;17.38;63.37;99672.09;4997278;28;20030;-68
2023/08/30 01:40:44;;;;;;;11.73;3.80;;;;;;;17.36;63.42;99673.94;4998808;28;20054;-67
2023/08/30 01:43:13;;;;;;;8.27;3.05;;;;;;;17.34;63.62;99676.66;4988362;28;20022;-67
2023/08/30 01:45:41;;;;;;;9.52;3.40;;;;;;;17.32;63.96;99667.03;4996763;28;20041;-67
2023/08/30 01:48:11;;;;;;;10.03;3.10;;;;;;;17.30;64.01;99674.22;4998700;28;20081;-67
2023/08/30 01:50:38;;;;;;;8.88;3.30;;;;;;;17.26;64.18;99665.47;4998516;28;20036;-67
2023/08/30 01:53:04;;;;;;;8.45;3.20;;;;;;;17.26;63.96;99668.13;4996920;28;20522;-67
2023/08/30 01:55:31;;;;;;;8.65;3.33;;;;;;;17.29;63.99;99667.16;4997119;28;20494;-67
2023/08/30 01:57:57;;;;;;;9.50;3.93;;;;;;;17.31;64.11;99673.28;4998606;28;20049;-67
2023/08/30 02:00:22;;;;;;;8.57;3.30;;;;;;;17.32;63.99;99667.03;4997968;28;20041;-67
2023/08/30 02:02:48;;;;;;;10.30;3.30;;;;;;;17.30;64.34;99674.22;4998280;28;20093;-67
2023/08/30 02:05:13;;;;;;;8.63;3.73;;;;;;;17.26;64.42;99665.47;4992634;28;20384;-67
2023/08/30 02:08:02;;;;;;;12.53;3.40;;;;;;;17.25;64.48;99665.56;4998085;28;20076;-67
2023/08/30 02:10:34;;;;;;;13.55;3.50;;;;;;;17.25;64.43;99646.94;4998204;28;20042;-67
2023/08/30 02:13:01;;;;;;;10.50;3.53;;;;;;;17.24;64.64;99647.84;4997736;28;20068;-67
2023/08/30 02:15:27;;;;;;;10.20;3.30;;;;;;;17.24;64.53;99661.13;4997636;28;20061;-67
2023/08/30 02:17:53;;;;;;;10.60;2.88;;;;;;;17.26;64.42;99652.19;4991232;28;20027;-67
2023/08/30 02:20:19;;;;;;;10.90;3.27;;;;;;;17.31;64.64;99660.81;4996685;28;20049;-67
2023/08/30 02:22:44;;;;;;;7.72;3.10;;;;;;;17.34;64.70;99649.19;4998146;28;20033;-67
2023/08/30 02:25:10;;;;;;;11.93;3.30;;;;;;;17.30;64.69;99645.78;4997790;28;20095;-67
2023/08/30 02:27:35;;;;;;;9.45;3.15;;;;;;;17.27;64.79;99648.59;4997978;28;20050;-67
2023/08/30 02:30:02;;;;;;;11.13;3.10;;;;;;;17.28;64.79;99638.81;4997466;28;20061;-67
2023/08/30 02:32:28;;;;;;;9.00;3.28;;;;;;;17.28;65.04;99634.34;4997686;28;20041;-67
2023/08/30 02:34:53;;;;;;;12.23;3.13;;;;;;;17.28;65.07;99633.50;4997611;28;20038;-67
2023/08/30 02:37:19;;;;;;;10.73;3.80;;;;;;;17.26;65.25;99641.53;4997627;28;20109;-67
2023/08/30 02:39:44;;;;;;;11.40;2.83;;;;;;;17.26;65.39;99641.53;4997647;28;20045;-67
2023/08/30 02:42:10;;;;;;;13.10;3.33;;;;;;;17.28;65.27;99639.66;4997655;28;20101;-67
2023/08/30 02:44:35;;;;;;;9.27;3.67;;;;;;;17.28;65.15;99645.00;4997523;28;20026;-67
2023/08/30 02:47:01;;;;;;;8.30;3.30;;;;;;;17.27;65.35;99647.72;4997275;28;20565;-67
2023/08/30 02:49:26;;;;;;;8.83;3.60;;;;;;;17.25;65.43;99646.94;4997356;28;20068;-67
2023/08/30 02:51:52;;;;;;;8.33;3.43;;;;;;;17.24;65.64;99645.19;4996131;28;20098;-67
2023/08/30 02:54:17;;;;;;;10.02;3.60;;;;;;;17.22;65.61;99646.09;4995989;28;20053;-67
2023/08/30 02:56:43;;;;;;;8.63;3.27;;;;;;;17.18;65.80;99641.84;4997609;28;20475;-67
2023/08/30 02:59:09;;;;;;;9.73;3.78;;;;;;;17.17;65.77;99641.94;4997275;28;20058;-67
2023/08/30 03:01:35;;;;;;;7.27;3.10;;;;;;;17.16;65.69;99641.03;4996685;28;20443;-67
2023/08/30 03:04:00;;;;;;;9.68;3.38;;;;;;;17.18;65.76;99641.84;4994582;28;20037;-67
2023/08/30 03:06:25;;;;;;;9.87;3.30;;;;;;;17.18;65.72;99633.88;4988547;28;20034;-67
2023/08/30 03:08:51;;;;;;;9.10;3.47;;;;;;;17.19;65.66;99640.91;4997068;28;20041;-67
2023/08/30 03:11:16;;;;;;;9.47;3.53;;;;;;;17.19;65.85;99635.59;4995614;28;20104;-67
2023/08/30 03:13:41;;;;;;;7.10;3.13;;;;;;;17.15;66.01;99639.31;4995766;28;20050;-67
2023/08/30 03:16:15;;;;;;;7.17;3.23;;;;;;;17.15;65.96;99634.00;4996805;28;20272;-67
2023/08/30 03:18:41;;;;;;;10.45;3.53;;;;;;;17.14;66.13;99636.75;4987640;28;20030;-67
2023/08/30 03:21:07;;;;;;;10.67;3.80;;;;;;;17.10;65.88;99633.31;4997132;28;20516;-67
2023/08/30 03:23:33;;;;;;;11.00;3.72;;;;;;;17.08;65.93;99632.53;4996813;28;20445;-67
2023/08/30 03:25:59;;;;;;;12.63;3.55;;;;;;;17.03;66.29;99634.53;4997220;28;20034;-67
2023/08/30 03:28:24;;;;;;;9.45;3.38;;;;;;;16.98;66.33;99636.44;4995702;28;20034;-67
2023/08/30 03:30:50;;;;;;;11.50;3.47;;;;;;;16.92;66.33;99633.13;4996485;28;20041;-67
2023/08/30 03:33:15;;;;;;;12.03;3.77;;;;;;;16.87;66.61;99629.78;4996846;28;20032;-67
2023/08/30 03:35:41;;;;;;;10.97;3.47;;;;;;;16.84;66.58;99632.56;4997081;28;20033;-68
2023/08/30 03:38:06;;;;;;;8.37;3.60;;;;;;;16.81;66.86;99646.00;4996816;28;20041;-67
2023/08/30 03:40:32;;;;;;;9.48;3.60;;;;;;;16.73;67.19;99646.28;4996993;28;20376;-67
2023/08/30 03:42:58;;;;;;;12.55;3.72;;;;;;;16.73;67.17;99640.97;4996764;28;20030;-67
2023/08/30 03:45:23;;;;;;;8.43;3.40;;;;;;;16.74;67.27;99639.16;4995023;28;20383;-67
2023/08/30 03:47:49;;;;;;;10.73;3.50;;;;;;;16.73;67.43;99635.66;4995409;28;20089;-68
2023/08/30 03:50:14;;;;;;;9.60;3.70;;;;;;;16.77;67.46;99644.38;4996914;28;20506;-67
2023/08/30 03:52:40;;;;;;;8.90;3.42;;;;;;;16.78;67.30;99632.81;4996672;28;20031;-67
2023/08/30 03:55:05;;;;;;;9.63;3.50;;;;;;;16.82;67.48;99630.88;4996777;28;20033;-68
2023/08/30 03:57:31;;;;;;;11.57;3.30;;;;;;;16.85;67.22;99631.63;4996473;28;20110;-68
2023/08/30 03:59:56;;;;;;;8.83;3.30;;;;;;;16.86;67.19;99628.06;4996560;28;20701;-67
2023/08/30 04:02:23;;;;;;;8.80;3.20;;;;;;;16.88;67.22;99622.66;4995223;28;20858;-67
2023/08/30 04:04:48;;;;;;;11.38;3.67;;;;;;;16.92;67.31;99622.47;4988975;28;20023;-67
2023/08/30 04:07:14;;;;;;;11.67;3.57;;;;;;;16.95;67.13;99626.81;5014021;28;20034;-67
2023/08/30 04:09:39;;;;;;;9.57;3.53;;;;;;;16.92;67.17;99619.81;4988502;28;20084;-67
2023/08/30 04:12:05;;;;;;;11.93;3.70;;;;;;;16.90;67.50;99619.00;4995050;28;20111;-67
2023/08/30 04:14:31;;;;;;;9.60;3.70;;;;;;;16.85;67.90;99615.69;4996738;28;20034;-67
2023/08/30 04:16:56;;;;;;;9.10;3.43;;;;;;;16.81;67.54;99619.41;4996773;28;20463;-67
2023/08/30 04:19:21;;;;;;;10.13;3.37;;;;;;;16.77;67.84;99617.81;4998642;28;20081;-67
2023/08/30 04:21:47;;;;;;;9.37;3.40;;;;;;;16.73;67.93;99617.03;4998905;28;20026;-67
2023/08/30 04:24:14;;;;;;;10.70;3.80;;;;;;;16.74;67.43;99615.22;4999060;28;20037;-68
2023/08/30 04:26:39;;;;;;;12.67;3.57;;;;;;;16.73;67.80;99618.81;4998925;28;20015;-67
2023/08/30 04:29:05;;;;;;;11.73;4.10;;;;;;;16.69;67.88;99617.22;5000215;28;20093;-67
2023/08/30 04:31:30;;;;;;;11.20;3.03;;;;;;;16.65;67.98;99620.00;4998231;28;20083;-68
2023/08/30 04:33:56;;;;;;;8.40;3.17;;;;;;;16.65;68.08;99625.31;4999987;28;20022;-67
2023/08/30 04:36:21;;;;;;;8.25;3.13;;;;;;;16.69;68.09;99619.88;4998565;28;20033;-67
2023/08/30 04:38:47;;;;;;;8.43;3.00;;;;;;;16.72;67.85;99622.41;4998678;28;20038;-67
2023/08/30 04:41:12;;;;;;;9.45;3.47;;;;;;;16.74;67.95;99623.22;4999629;28;20085;-67
2023/08/30 04:43:38;;;;;;;11.13;3.90;;;;;;;16.77;67.61;99612.47;4999952;28;20106;-67
2023/08/30 04:46:03;;;;;;;7.60;3.47;;;;;;;16.75;67.74;99615.19;4999244;28;20088;-67
2023/08/30 04:48:29;;;;;;;9.27;3.30;;;;;;;16.75;67.73;99628.47;4999732;28;20110;-67
2023/08/30 04:51:02;;;;;;;9.93;3.90;;;;;;;16.77;67.84;99623.13;4999533;28;20030;-67
2023/08/30 04:53:28;;;;;;;13.73;3.90;;;;;;;16.76;67.99;99616.06;4999487;28;20026;-67
2023/08/30 04:55:54;;;;;;;10.83;3.70;;;;;;;16.72;68.04;99615.31;4999539;28;20045;-67
2023/08/30 04:58:20;;;;;;;11.55;4.13;;;;;;;16.69;68.17;99611.91;4999631;28;20030;-67
2023/08/30 05:00:45;;;;;;;11.23;3.70;;;;;;;16.65;68.33;99604.06;4999052;28;20057;-67
2023/08/30 05:03:10;;;;;;;10.17;3.50;;;;;;;16.63;68.24;99602.38;4999473;28;20089;-67
2023/08/30 05:05:36;;;;;;;8.30;3.40;;;;;;;16.60;68.30;99611.34;4989955;28;20022;-67
2023/08/30 05:08:01;;;;;;;10.83;3.60;;;;;;;16.60;68.37;99608.69;4999327;28;20471;-67
2023/08/30 05:10:27;;;;;;;7.80;3.50;;;;;;;16.59;68.41;99601.66;4999383;28;20034;-67
2023/08/30 05:12:52;;;;;;;7.47;3.43;;;;;;;16.59;68.44;99612.28;4999031;28;20305;-68
2023/08/30 05:15:18;;;;;;;9.97;3.73;;;;;;;16.60;68.35;99611.34;4998948;28;20026;-68
2023/08/30 05:17:43;;;;;;;9.90;3.55;;;;;;;16.59;68.54;99619.38;4993652;28;20030;-68
2023/08/30 05:20:09;;;;;;;13.80;4.53;;;;;;;16.55;68.94;99617.75;4996821;28;20054;-68
2023/08/30 05:22:35;;;;;;;11.67;4.07;;;;;;;16.52;69.13;99617.88;4999266;28;20018;-68
2023/08/30 05:25:01;;;;;;;10.10;3.65;;;;;;;16.47;68.85;99621.59;4997679;28;20034;-68
2023/08/30 05:27:27;;;;;;;11.63;3.73;;;;;;;16.45;69.15;99606.63;4998917;28;20040;-67
2023/08/30 05:29:52;;;;;;;14.40;4.18;;;;;;;16.41;69.19;99610.34;4996940;28;20061;-67
2023/08/30 05:32:17;;;;;;;9.93;3.70;;;;;;;16.35;69.49;99622.94;4998932;28;20056;-68
2023/08/30 05:34:43;;;;;;;10.20;3.87;;;;;;;16.30;69.58;99619.59;4998937;28;20108;-68
2023/08/30 05:37:08;;;;;;;10.43;3.57;;;;;;;16.28;69.88;99620.56;4998921;28;20030;-68
2023/08/30 05:39:35;;;;;;;9.25;3.75;;;;;;;16.27;69.78;99625.00;4998585;28;20109;-68
2023/08/30 05:42:01;;;;;;;11.07;3.60;;;;;;;16.27;69.74;99625.00;4998882;28;20030;-68
2023/08/30 05:44:26;;;;;;;11.50;4.20;;;;;;;16.25;69.87;99624.19;4998548;28;20395;-67
2023/08/30 05:46:52;;;;;;;9.73;3.67;;;;;;;16.27;70.04;99630.31;4998303;28;20034;-67
2023/08/30 05:49:17;;;;;;;10.83;3.80;;;;;;;16.28;69.77;99631.19;4998549;28;20076;-68
2023/08/30 05:51:42;;;;;;;10.13;3.47;;;;;;;16.32;69.71;99636.34;4998256;28;20525;-68
2023/08/30 05:54:08;;;;;;;11.23;3.70;;;;;;;16.35;69.52;99636.22;4997131;28;20292;-67
2023/08/30 05:56:33;;;;;;;10.27;4.00;;;;;;;16.38;69.73;99637.03;4998706;28;20052;-68
2023/08/30 05:58:59;;;;;;;10.43;3.53;;;;;;;16.37;69.66;99638.81;4998563;28;20026;-68
2023/08/30 06:01:24;;;;;;;9.93;3.40;;;;;;;16.39;69.64;99633.44;4997966;28;20466;-68
2023/08/30 06:03:50;;;;;;;8.50;3.40;;;;;;;16.42;69.46;99634.22;4998261;28;20018;-67
2023/08/30 06:06:15;;;;;;;13.17;3.63;;;;;;;16.46;69.55;99634.94;4989185;28;20030;-68
2023/08/30 06:08:41;;;;;;;11.25;3.50;;;;;;;16.48;69.61;99635.75;4998123;28;20076;-68
2023/08/30 06:11:06;;;;;;;10.07;3.50;;;;;;;16.51;69.43;99632.97;4998027;28;20057;-68
2023/08/30 06:13:32;;;;;;;10.07;3.43;;;;;;;16.56;69.46;99635.44;4997991;28;20407;-68
2023/08/30 06:15:57;;;;;;;12.30;3.67;;;;;;;16.59;69.35;99630.88;4997815;28;20034;-68
2023/08/30 06:18:23;;;;;;;9.13;3.40;;;;;;;16.61;69.41;99633.47;4990253;28;20304;-68
2023/08/30 06:20:49;;;;;;;10.47;3.70;;;;;;;16.64;69.35;99628.91;4998148;28;20034;-67
2023/08/30 06:23:17;;;;;;;7.22;3.30;;;;;;;16.70;69.30;99630.47;4998085;28;20030;-67
2023/08/30 06:25:43;;;;;;;9.50;3.13;;;;;;;16.80;69.14;99633.63;4988662;28;20089;-68
2023/08/30 06:28:08;;;;;;;12.93;3.60;;;;;;;16.89;68.88;99638.56;4996670;28;20027;-68
2023/08/30 06:30:34;;;;;;;8.77;3.50;;;;;;;16.94;69.02;99639.22;4997642;28;20510;-67
2023/08/30 06:33:00;;;;;;;9.57;3.60;;;;;;;16.96;69.15;99640.97;4997633;28;20503;-68
2023/08/30 06:35:25;;;;;;;10.97;3.77;;;;;;;16.97;69.00;99640.91;4997304;28;20458;-68
2023/08/30 06:37:52;;;;;;;11.10;3.53;;;;;;;16.97;68.96;99640.91;4996308;28;20109;-68
2023/08/30 06:40:17;;;;;;;9.25;3.60;;;;;;;17.00;69.02;99646.13;4996901;28;20023;-68
2023/08/30 06:42:43;;;;;;;11.93;4.10;;;;;;;17.03;69.19;99643.34;4997131;28;20085;-68
2023/08/30 06:45:08;;;;;;;11.00;3.83;;;;;;;17.07;69.02;99646.75;4997089;28;20029;-68
2023/08/30 06:47:34;;;;;;;11.27;3.78;;;;;;;17.14;68.94;99645.56;4996987;28;20033;-68
2023/08/30 06:50:00;;;;;;;9.47;3.30;;;;;;;17.21;68.89;99638.19;4997545;28;20030;-68
2023/08/30 06:52:26;;;;;;;9.35;3.17;;;;;;;17.27;68.71;99631.78;4995957;28;20032;-68
2023/08/30 06:54:51;;;;;;;9.47;3.80;;;;;;;17.34;68.66;99627.91;4997417;28;20498;-68
2023/08/30 06:57:17;;;;;;;9.23;3.60;;;;;;;17.36;68.46;99628.69;4997536;28;20483;-69
2023/08/30 06:59:42;;;;;;;11.47;3.50;;;;;;;17.42;68.54;99635.56;4997396;28;20034;-68
2023/08/30 07:02:08;;;;;;;11.73;3.53;;;;;;;17.50;68.34;99629.00;4997264;28;20050;-68
2023/08/30 07:04:33;;;;;;;10.97;3.97;;;;;;;17.57;68.14;99626.06;4991430;28;20691;-67
2023/08/30 07:06:59;;;;;;;9.23;3.47;;;;;;;17.63;67.52;99631.09;4993953;28;20026;-68
2023/08/30 07:09:28;;;;;;;11.10;3.70;;;;;;;17.71;67.45;99631.63;4997024;28;20034;-68
2023/08/30 07:11:58;;;;;;;9.47;3.47;;;;;;;17.81;67.29;99637.41;4996920;28;20046;-67
2023/08/30 07:14:23;;;;;;;11.07;3.60;;;;;;;17.87;66.93;99633.63;4997263;28;20088;-67
2023/08/30 07:16:51;;;;;;;10.20;3.73;;;;;;;17.91;66.82;99640.53;4996809;28;20038;-67
2023/08/30 07:19:17;;;;;;;10.57;3.40;;;;;;;17.94;66.72;99645.72;4989917;28;20274;-67
2023/08/30 07:21:42;;;;;;;9.90;3.45;;;;;;;17.96;66.60;99635.84;4995878;28;20614;-67
2023/08/30 07:24:08;;;;;;;9.90;3.93;;;;;;;17.97;66.51;99634.97;4997269;28;20100;-68
2023/08/30 07:26:34;;;;;;;9.45;3.60;;;;;;;17.99;66.36;99641.06;4992290;28;20054;-67
2023/08/30 07:28:59;;;;;;;10.53;3.03;;;;;;;18.02;66.29;99646.28;4994610;28;20034;-66
2023/08/30 07:31:25;;;;;;;12.93;3.73;;;;;;;18.06;66.37;99647.00;4992368;28;20041;-67
2023/08/30 07:33:50;;;;;;;9.60;3.60;;;;;;;18.09;66.08;99646.88;4991755;28;20269;-67
2023/08/30 07:36:15;;;;;;;7.17;3.10;;;;;;;18.13;65.93;99647.59;4994963;28;20030;-68
2023/08/30 07:38:41;;;;;;;9.10;3.40;;;;;;;18.19;65.94;99648.19;4994978;28;20030;-67
2023/08/30 07:41:06;;;;;;;9.10;3.40;;;;;;;18.23;66.09;99638.25;4996450;28;20027;-67
2023/08/30 07:43:31;;;;;;;10.53;3.50;;;;;;;18.25;65.83;99640.84;4994025;28;20101;-67
2023/08/30 07:45:58;;;;;;;10.63;3.30;;;;;;;18.31;65.57;99641.44;4993282;28;20261;-67
2023/08/30 07:48:24;;;;;;;7.75;2.97;;;;;;;18.40;65.63;99644.59;4996363;28;20030;-67
2023/08/30 07:50:50;;;;;;;10.60;3.70;;;;;;;18.51;64.78;99648.47;4996786;28;20077;-67
2023/08/30 07:53:15;;;;;;;9.82;3.10;;;;;;;18.61;64.95;99632.91;5000848;28;20026;-67
2023/08/30 07:55:41;;;;;;;9.17;3.20;;;;;;;18.74;64.56;99640.34;5000862;28;20113;-67
2023/08/30 07:58:09;;;;;;;9.40;3.50;;;;;;;18.80;64.05;99640.03;4998884;28;20022;-68
2023/08/30 08:00:34;;;;;;;7.53;3.15;;;;;;;18.79;64.31;99640.97;5000169;28;20026;-68
2023/08/30 08:03:00;;;;;;;8.23;3.60;;;;;;;18.84;64.00;99627.44;4997556;28;20072;-67
2023/08/30 08:05:25;;;;;;;8.38;3.35;;;;;;;18.91;63.77;99634.19;4990951;28;20026;-68
2023/08/30 08:07:52;;;;;;;8.27;2.80;;;;;;;19.01;63.80;99634.63;5000167;28;20030;-68
2023/08/30 08:10:17;;;;;;;8.07;2.70;;;;;;;19.10;63.49;99636.81;5000497;28;20053;-68
2023/08/30 08:12:43;;;;;;;8.57;2.90;;;;;;;19.21;63.19;99639.84;4997323;28;20054;-67
2023/08/30 08:15:09;;;;;;;7.83;2.73;;;;;;;19.31;62.97;99636.69;4995519;28;20021;-68
2023/08/30 08:17:34;;;;;;;9.00;3.20;;;;;;;19.38;63.08;99638.09;4995647;28;20403;-67
2023/08/30 08:20:00;;;;;;;10.00;3.10;;;;;;;19.42;62.74;99639.69;4996950;28;20030;-68
2023/08/30 08:22:25;;;;;;;8.27;3.23;;;;;;;19.45;62.83;99641.34;4999526;28;20113;-68
2023/08/30 08:24:51;;;;;;;7.60;2.70;;;;;;;19.40;62.33;99641.56;4997614;28;20336;-68
2023/08/30 08:27:17;;;;;;;9.33;2.90;;;;;;;19.40;62.71;99646.91;4995649;28;20022;-67
2023/08/30 08:29:42;;;;;;;7.53;2.50;;;;;;;19.39;62.44;99647.00;4998739;28;20026;-67
2023/08/30 08:32:08;;;;;;;6.10;2.23;;;;;;;19.37;62.63;99647.06;4999473;28;20041;-68
2023/08/30 08:34:34;;;;;;;7.13;2.85;;;;;;;19.34;62.63;99649.88;4999559;28;20048;-67
2023/08/30 08:36:59;;;;;;;7.50;2.43;;;;;;;19.30;62.71;99653.66;4999853;28;20455;-67
2023/08/30 08:39:25;;;;;;;10.60;2.65;;;;;;;19.25;62.83;99658.38;4996548;28;20030;-67
2023/08/30 08:41:52;;;;;;;9.17;2.40;;;;;;;19.25;62.38;99661.03;4996327;28;20030;-67
2023/08/30 08:44:19;;;;;;;7.10;1.98;;;;;;;19.24;62.35;99665.50;4992567;28;20030;-67
2023/08/30 08:46:46;;;;;;;7.37;2.00;;;;;;;19.26;62.22;99665.44;4999442;28;20038;-67
2023/08/30 08:49:13;;;;;;;7.25;2.20;;;;;;;19.29;62.39;99670.63;4993234;28;20503;-67
2023/08/30 08:51:40;;;;;;;6.97;2.25;;;;;;;19.32;62.25;99671.34;4999151;28;20053;-68
2023/08/30 08:54:05;;;;;;;8.48;2.20;;;;;;;19.33;62.32;99673.06;4996937;28;20033;-68
2023/08/30 08:56:32;;;;;;;6.27;2.10;;;;;;;19.35;62.23;99679.19;4995345;28;20034;-67
2023/08/30 08:58:58;;;;;;;6.88;2.05;;;;;;;19.33;61.92;99685.53;4998431;28;20036;-68
2023/08/30 09:01:24;;;;;;;7.82;2.05;;;;;;;19.33;61.52;99685.53;4998432;28;20494;-67
2023/08/30 09:03:50;;;;;;;7.30;2.43;;;;;;;19.31;61.64;99679.41;4998427;28;20052;-67
2023/08/30 09:06:17;;;;;;;6.65;2.00;;;;;;;19.31;61.57;99682.97;4990068;28;20033;-67
2023/08/30 09:08:42;;;;;;;9.55;2.15;;;;;;;19.33;61.74;99681.06;4996315;28;20026;-68
2023/08/30 09:11:08;;;;;;;8.40;2.77;;;;;;;19.33;61.61;99689.09;4998893;28;20061;-68
2023/08/30 09:13:33;;;;;;;7.10;2.70;;;;;;;19.34;61.74;99682.81;4998343;28;20015;-68
2023/08/30 09:15:59;;;;;;;8.37;2.50;;;;;;;19.38;61.49;99694.16;4997887;28;20026;-68
2023/08/30 09:18:27;;;;;;;7.73;2.07;;;;;;;19.45;61.03;99686.72;4997803;28;20268;-68
2023/08/30 09:21:13;;;;;;;7.60;2.30;;;;;;;19.48;60.93;99686.56;4998648;28;20440;-68
2023/08/30 09:23:38;;;;;;;7.00;2.20;;;;;;;19.57;60.67;99686.13;4998161;28;20507;-68
2023/08/30 09:26:05;;;;;;;6.80;2.23;;;;;;;19.62;60.67;99693.88;4998815;28;20045;-67
2023/08/30 09:28:31;;;;;;;7.65;2.53;;;;;;;19.69;60.43;99689.97;4994218;28;20035;-68
2023/08/30 09:30:59;;;;;;;8.77;3.13;;;;;;;19.76;60.62;99691.38;4998160;28;20023;-68
2023/08/30 09:33:32;;;;;;;6.97;2.28;;;;;;;19.87;60.35;99687.25;4995851;28;20024;-68
2023/08/30 09:35:59;;;;;;;6.97;2.17;;;;;;;19.97;60.25;99695.69;4998376;28;20077;-69
2023/08/30 09:38:25;;;;;;;6.57;2.30;;;;;;;20.05;59.78;99690.84;4995871;28;20041;-69
2023/08/30 09:40:50;;;;;;;8.63;2.90;;;;;;;20.08;59.97;99690.66;4994959;28;20032;-69
2023/08/30 09:43:21;;;;;;;10.70;2.92;;;;;;;20.12;59.59;99686.88;4998754;28;20029;-68
2023/08/30 09:45:47;;;;;;;8.30;3.05;;;;;;;20.13;59.38;99693.06;4998257;28;20033;-69
2023/08/30 09:48:13;;;;;;;6.97;2.47;;;;;;;20.16;59.58;99687.59;4998596;28;20038;-69
2023/08/30 09:50:41;;;;;;;8.35;2.60;;;;;;;20.20;59.83;99686.47;4993511;28;20110;-68
2023/08/30 09:53:11;;;;;;;8.95;2.83;;;;;;;20.26;59.65;99694.16;4997402;28;20098;-68
2023/08/30 09:55:38;;;;;;;6.90;2.50;;;;;;;20.31;59.37;99688.56;4998554;28;20022;-68
2023/08/30 09:58:06;;;;;;;10.20;2.55;;;;;;;20.36;59.75;99694.53;4998629;28;20407;-68
2023/08/30 10:00:36;;;;;;;10.00;3.20;;;;;;;20.39;59.05;99694.38;4996472;28;20400;-69
2023/08/30 10:03:02;;;;;;;8.18;2.90;;;;;;;20.42;59.18;99690.66;4998573;28;20018;-69
2023/08/30 10:05:29;;;;;;;6.50;2.40;;;;;;;20.46;59.35;99685.03;4989651;28;20068;-68
2023/08/30 10:07:56;;;;;;;7.03;2.63;;;;;;;20.50;58.70;99691.09;4998451;28;20049;-69
2023/08/30 10:10:23;;;;;;;9.50;2.80;;;;;;;20.47;58.74;99684.09;4998360;28;20105;-69
2023/08/30 10:12:49;;;;;;;7.88;2.72;;;;;;;20.43;58.54;99681.69;4997759;28;20038;-69
2023/08/30 10:15:15;;;;;;;10.05;3.20;;;;;;;20.41;58.85;99680.91;4997515;28;20491;-69
2023/08/30 10:17:45;;;;;;;8.47;2.70;;;;;;;20.36;58.89;99687.34;4998175;28;20028;-69
2023/08/30 10:20:12;;;;;;;10.60;2.67;;;;;;;20.28;59.25;99683.41;4997362;28;20031;-69
2023/08/30 10:22:40;;;;;;;8.15;2.97;;;;;;;20.28;59.35;99681.56;4996893;28;20023;-68
2023/08/30 10:25:16;;;;;;;7.20;2.42;;;;;;;20.29;59.63;99683.28;4998089;28;20084;-69
2023/08/30 10:27:48;;;;;;;7.30;2.17;;;;;;;20.28;59.83;99675.38;4998158;28;20491;-69
2023/08/30 10:30:15;;;;;;;7.72;2.40;;;;;;;20.27;59.73;99679.84;4997690;28;20018;-68
2023/08/30 10:32:42;;;;;;;8.52;2.80;;;;;;;20.26;60.13;99683.47;4997485;28;20038;-69
2023/08/30 10:35:12;;;;;;;7.85;2.30;;;;;;;20.28;59.92;99681.56;4998026;28;20022;-69
2023/08/30 10:37:38;;;;;;;6.70;2.50;;;;;;;20.37;59.78;99680.22;4998050;28;20034;-69
2023/08/30 10:40:04;;;;;;;7.27;2.30;;;;;;;20.52;59.63;99670.47;4997890;28;20030;-69
2023/08/30 10:42:30;;;;;;;6.40;2.00;;;;;;;20.64;59.93;99672.50;4995423;28;20030;-69
2023/08/30 10:45:06;;;;;;;34.03;6.83;;;;;;;20.70;59.11;99675.78;4988480;28;20444;-70
2023/08/30 10:47:37;;;;;;;8.75;2.58;;;;;;;20.76;59.68;99670.94;4996506;28;20014;-70
2023/08/30 10:50:11;;;;;;;21.38;7.53;;;;;;;20.76;59.36;99680.78;4997882;28;20064;-71
2023/08/30 10:52:36;;;;;;;12.23;3.33;;;;;;;20.79;59.87;99675.25;4997676;28;20018;-68
2023/08/30 10:55:23;;;;;;;16.60;4.70;;;;;;;20.75;59.54;99679.03;4997580;28;20033;-68
2023/08/30 10:58:02;;;;;;;9.43;3.33;;;;;;;20.81;60.07;99676.03;4997717;28;20077;-69
2023/08/30 11:00:29;;;;;;;7.38;2.83;;;;;;;20.88;59.73;99679.25;4997270;28;20053;-69
2023/08/30 11:02:55;;;;;;;6.70;2.23;;;;;;;20.91;59.55;99671.91;4996776;28;20025;-70
2023/08/30 11:05:23;;;;;;;6.70;2.50;;;;;;;20.97;59.57;99673.34;4994028;28;20104;-70
2023/08/30 11:07:50;;;;;;;7.03;2.13;;;;;;;21.00;59.57;99666.97;4997032;28;20022;-70
2023/08/30 11:10:17;;;;;;;7.53;2.38;;;;;;;20.99;59.77;99659.91;4993555;28;20029;-68
2023/08/30 11:12:44;;;;;;;6.55;2.40;;;;;;;20.98;59.94;99663.53;4996701;28;20117;-69
2023/08/30 11:15:11;;;;;;;5.70;2.40;;;;;;;20.98;60.07;99656.38;4996590;28;20499;-68
2023/08/30 11:17:36;;;;;;;9.73;2.92;;;;;;;21.04;59.48;99661.38;4995973;28;20455;-69
2023/08/30 11:20:13;;;;;;;6.30;2.50;;;;;;;21.16;59.46;99651.78;4997260;28;20081;-68
2023/08/30 11:22:43;;;;;;;6.75;2.17;;;;;;;21.35;59.27;99648.03;4997584;28;20073;-69
2023/08/30 11:25:10;;;;;;;6.82;2.40;;;;;;;21.58;58.91;99645.75;4997167;28;20511;-69
2023/08/30 11:27:36;;;;;;;7.65;2.38;;;;;;;21.75;58.60;99640.28;4995940;28;20022;-69
2023/08/30 11:30:05;;;;;;;6.63;2.13;;;;;;;22.02;57.84;99636.84;4996615;28;20041;-71